sensor_id;sensor_type;location;lat;lon;timestamp;P1;durP1;ratioP1;P2;durP2;ratioP2
3355;SDS011;1691;52.486;13.374;2022-09-09T00:00:46;12.93;;;7.87;;
3355;SDS011;1691;52.486;13.374;2022-09-09T00:03:41;8.07;;;7.67;;
3355;SDS011;1691;52.486;13.374;2022-09-09T00:11:45;9.60;;;8.67;;
3355;SDS011;1691;52.486;13.374;2022-09-09T00:14:25;9.13;;;8.40;;
3355;SDS011;1691;52.486;13.374;2022-09-09T00:17:08;9.00;;;8.40;;
3355;SDS011;1691;52.486;13.374;2022-09-09T00:19:48;9.80;;;9.10;;
3355;SDS011;1691;52.486;13.374;2022-09-09T00:22:32;10.27;;;9.27;;
3355;SDS011;1691;52.486;13.374;2022-09-09T00:25:17;10.03;;;9.00;;
3355;SDS011;1691;52.486;13.374;2022-09-09T00:28:19;9.13;;;8.43;;
3355;SDS011;1691;52.486;13.374;2022-09-09T00:30:49;11.97;;;8.77;;
3355;SDS011;1691;52.486;13.374;2022-09-09T00:33:20;9.90;;;9.30;;
3355;SDS011;1691;52.486;13.374;2022-09-09T00:35:52;8.77;;;8.27;;
3355;SDS011;1691;52.486;13.374;2022-09-09T00:38:25;9.97;;;9.20;;
3355;SDS011;1691;52.486;13.374;2022-09-09T00:41:05;9.73;;;8.93;;
3355;SDS011;1691;52.486;13.374;2022-09-09T00:44:03;10.37;;;9.57;;
3355;SDS011;1691;52.486;13.374;2022-09-09T00:58:49;9.77;;;9.00;;
3355;SDS011;1691;52.486;13.374;2022-09-09T01:01:41;11.30;;;10.40;;
3355;SDS011;1691;52.486;13.374;2022-09-09T01:04:10;21.43;;;9.87;;
3355;SDS011;1691;52.486;13.374;2022-09-09T01:06:43;9.43;;;8.83;;
3355;SDS011;1691;52.486;13.374;2022-09-09T01:09:29;10.87;;;9.97;;
3355;SDS011;1691;52.486;13.374;2022-09-09T01:12:26;11.40;;;10.47;;
3355;SDS011;1691;52.486;13.374;2022-09-09T01:15:09;10.50;;;9.43;;
3355;SDS011;1691;52.486;13.374;2022-09-09T01:20:39;12.27;;;9.07;;
3355;SDS011;1691;52.486;13.374;2022-09-09T01:23:38;9.43;;;8.73;;
3355;SDS011;1691;52.486;13.374;2022-09-09T01:29:06;9.70;;;8.90;;
3355;SDS011;1691;52.486;13.374;2022-09-09T01:31:38;10.70;;;8.93;;
3355;SDS011;1691;52.486;13.374;2022-09-09T01:34:24;10.50;;;9.60;;
3355;SDS011;1691;52.486;13.374;2022-09-09T01:37:04;9.77;;;9.03;;
3355;SDS011;1691;52.486;13.374;2022-09-09T01:39:34;11.17;;;10.00;;
3355;SDS011;1691;52.486;13.374;2022-09-09T01:42:04;9.90;;;9.23;;
3355;SDS011;1691;52.486;13.374;2022-09-09T01:44:35;11.53;;;10.50;;
3355;SDS011;1691;52.486;13.374;2022-09-09T01:47:04;9.60;;;8.83;;
3355;SDS011;1691;52.486;13.374;2022-09-09T01:49:32;10.20;;;9.40;;
3355;SDS011;1691;52.486;13.374;2022-09-09T01:51:59;9.70;;;8.70;;
3355;SDS011;1691;52.486;13.374;2022-09-09T01:54:28;8.73;;;8.03;;
3355;SDS011;1691;52.486;13.374;2022-09-09T02:00:04;9.57;;;8.87;;
3355;SDS011;1691;52.486;13.374;2022-09-09T02:06:40;8.50;;;7.80;;
3355;SDS011;1691;52.486;13.374;2022-09-09T02:09:02;8.77;;;8.13;;
3355;SDS011;1691;52.486;13.374;2022-09-09T02:11:33;9.70;;;8.90;;
3355;SDS011;1691;52.486;13.374;2022-09-09T02:14:01;10.27;;;9.27;;
3355;SDS011;1691;52.486;13.374;2022-09-09T02:16:42;10.47;;;9.67;;
3355;SDS011;1691;52.486;13.374;2022-09-09T02:22:05;9.00;;;8.27;;
3355;SDS011;1691;52.486;13.374;2022-09-09T02:24:34;9.23;;;8.57;;
3355;SDS011;1691;52.486;13.374;2022-09-09T02:27:06;11.50;;;8.70;;
3355;SDS011;1691;52.486;13.374;2022-09-09T02:29:41;9.13;;;8.43;;
3355;SDS011;1691;52.486;13.374;2022-09-09T02:32:11;10.43;;;9.30;;
3355;SDS011;1691;52.486;13.374;2022-09-09T02:34:56;10.13;;;9.33;;
3355;SDS011;1691;52.486;13.374;2022-09-09T02:37:32;9.80;;;8.90;;
3355;SDS011;1691;52.486;13.374;2022-09-09T02:40:09;9.73;;;8.93;;
3355;SDS011;1691;52.486;13.374;2022-09-09T02:42:40;9.97;;;8.83;;
3355;SDS011;1691;52.486;13.374;2022-09-09T02:45:10;13.33;;;9.47;;
3355;SDS011;1691;52.486;13.374;2022-09-09T02:50:26;8.67;;;8.17;;
3355;SDS011;1691;52.486;13.374;2022-09-09T02:58:30;8.13;;;7.67;;
3355;SDS011;1691;52.486;13.374;2022-09-09T03:00:58;8.87;;;8.27;;
3355;SDS011;1691;52.486;13.374;2022-09-09T03:03:27;12.67;;;8.60;;
3355;SDS011;1691;52.486;13.374;2022-09-09T03:05:55;8.67;;;7.97;;
3355;SDS011;1691;52.486;13.374;2022-09-09T03:08:23;9.03;;;8.17;;
3355;SDS011;1691;52.486;13.374;2022-09-09T03:10:50;9.57;;;8.77;;
3355;SDS011;1691;52.486;13.374;2022-09-09T03:13:20;10.23;;;9.27;;
3355;SDS011;1691;52.486;13.374;2022-09-09T03:15:47;10.70;;;9.67;;
3355;SDS011;1691;52.486;13.374;2022-09-09T03:18:15;10.10;;;8.83;;
3355;SDS011;1691;52.486;13.374;2022-09-09T03:20:42;9.30;;;8.40;;
3355;SDS011;1691;52.486;13.374;2022-09-09T03:23:09;14.70;;;8.77;;
3355;SDS011;1691;52.486;13.374;2022-09-09T03:25:46;8.83;;;8.03;;
3355;SDS011;1691;52.486;13.374;2022-09-09T03:28:14;8.67;;;7.93;;
3355;SDS011;1691;52.486;13.374;2022-09-09T03:30:42;10.40;;;8.50;;
3355;SDS011;1691;52.486;13.374;2022-09-09T03:33:09;11.03;;;9.03;;
3355;SDS011;1691;52.486;13.374;2022-09-09T03:35:36;9.10;;;8.40;;
3355;SDS011;1691;52.486;13.374;2022-09-09T03:38:03;9.80;;;7.97;;
3355;SDS011;1691;52.486;13.374;2022-09-09T03:40:30;8.27;;;7.60;;
3355;SDS011;1691;52.486;13.374;2022-09-09T03:42:57;9.00;;;8.03;;
3355;SDS011;1691;52.486;13.374;2022-09-09T03:45:24;14.17;;;8.87;;
3355;SDS011;1691;52.486;13.374;2022-09-09T03:47:51;10.27;;;7.37;;
3355;SDS011;1691;52.486;13.374;2022-09-09T03:50:18;8.90;;;8.10;;
3355;SDS011;1691;52.486;13.374;2022-09-09T03:52:45;12.20;;;8.30;;
3355;SDS011;1691;52.486;13.374;2022-09-09T03:55:13;8.63;;;7.60;;
3355;SDS011;1691;52.486;13.374;2022-09-09T03:57:40;8.47;;;7.67;;
3355;SDS011;1691;52.486;13.374;2022-09-09T04:00:07;8.53;;;7.83;;
3355;SDS011;1691;52.486;13.374;2022-09-09T04:02:35;7.37;;;6.97;;
3355;SDS011;1691;52.486;13.374;2022-09-09T04:05:02;11.30;;;7.10;;
3355;SDS011;1691;52.486;13.374;2022-09-09T04:07:29;8.07;;;7.37;;
3355;SDS011;1691;52.486;13.374;2022-09-09T04:09:58;11.47;;;7.67;;
3355;SDS011;1691;52.486;13.374;2022-09-09T04:12:26;7.90;;;7.23;;
3355;SDS011;1691;52.486;13.374;2022-09-09T04:14:53;13.13;;;7.23;;
3355;SDS011;1691;52.486;13.374;2022-09-09T04:17:20;7.10;;;6.70;;
3355;SDS011;1691;52.486;13.374;2022-09-09T04:19:47;8.10;;;7.37;;
3355;SDS011;1691;52.486;13.374;2022-09-09T04:22:14;8.47;;;7.50;;
3355;SDS011;1691;52.486;13.374;2022-09-09T04:24:42;11.10;;;6.80;;
3355;SDS011;1691;52.486;13.374;2022-09-09T04:27:14;7.50;;;7.00;;
3355;SDS011;1691;52.486;13.374;2022-09-09T04:29:41;11.50;;;7.57;;
3355;SDS011;1691;52.486;13.374;2022-09-09T04:32:08;7.60;;;7.00;;
3355;SDS011;1691;52.486;13.374;2022-09-09T04:34:35;9.03;;;7.50;;
3355;SDS011;1691;52.486;13.374;2022-09-09T04:37:02;7.60;;;6.87;;
3355;SDS011;1691;52.486;13.374;2022-09-09T04:39:29;7.03;;;6.53;;
3355;SDS011;1691;52.486;13.374;2022-09-09T04:41:56;8.10;;;7.47;;
3355;SDS011;1691;52.486;13.374;2022-09-09T04:44:23;8.83;;;7.30;;
3355;SDS011;1691;52.486;13.374;2022-09-09T04:46:50;7.97;;;7.23;;
3355;SDS011;1691;52.486;13.374;2022-09-09T04:49:18;7.30;;;6.80;;
3355;SDS011;1691;52.486;13.374;2022-09-09T04:51:45;7.07;;;6.57;;
3355;SDS011;1691;52.486;13.374;2022-09-09T04:54:13;6.90;;;6.40;;
3355;SDS011;1691;52.486;13.374;2022-09-09T04:56:40;7.13;;;6.60;;
3355;SDS011;1691;52.486;13.374;2022-09-09T04:59:08;7.67;;;7.17;;
3355;SDS011;1691;52.486;13.374;2022-09-09T05:01:36;6.57;;;6.27;;
3355;SDS011;1691;52.486;13.374;2022-09-09T05:04:03;7.60;;;6.67;;
3355;SDS011;1691;52.486;13.374;2022-09-09T05:06:30;7.60;;;6.97;;
3355;SDS011;1691;52.486;13.374;2022-09-09T05:08:57;8.20;;;5.87;;
3355;SDS011;1691;52.486;13.374;2022-09-09T05:11:26;7.20;;;6.50;;
3355;SDS011;1691;52.486;13.374;2022-09-09T05:14:13;8.30;;;7.50;;
3355;SDS011;1691;52.486;13.374;2022-09-09T05:16:41;6.60;;;6.20;;
3355;SDS011;1691;52.486;13.374;2022-09-09T05:19:10;9.20;;;5.97;;
3355;SDS011;1691;52.486;13.374;2022-09-09T05:21:37;11.63;;;5.10;;
3355;SDS011;1691;52.486;13.374;2022-09-09T05:24:05;4.77;;;4.50;;
3355;SDS011;1691;52.486;13.374;2022-09-09T05:26:32;8.20;;;4.50;;
3355;SDS011;1691;52.486;13.374;2022-09-09T05:28:59;4.97;;;4.10;;
3355;SDS011;1691;52.486;13.374;2022-09-09T05:31:26;7.33;;;3.60;;
3355;SDS011;1691;52.486;13.374;2022-09-09T05:33:56;4.03;;;3.17;;
3355;SDS011;1691;52.486;13.374;2022-09-09T05:36:23;9.77;;;8.17;;
3355;SDS011;1691;52.486;13.374;2022-09-09T05:38:50;3.23;;;3.00;;
3355;SDS011;1691;52.486;13.374;2022-09-09T05:41:20;13.93;;;5.00;;
3355;SDS011;1691;52.486;13.374;2022-09-09T05:43:49;32.33;;;23.57;;
3355;SDS011;1691;52.486;13.374;2022-09-09T05:46:18;10.10;;;3.17;;
3355;SDS011;1691;52.486;13.374;2022-09-09T05:48:48;9.40;;;3.20;;
3355;SDS011;1691;52.486;13.374;2022-09-09T05:51:18;3.47;;;2.40;;
3355;SDS011;1691;52.486;13.374;2022-09-09T05:53:52;3.63;;;3.23;;
3355;SDS011;1691;52.486;13.374;2022-09-09T05:56:22;2.20;;;2.10;;
3355;SDS011;1691;52.486;13.374;2022-09-09T05:58:51;2.60;;;2.40;;
3355;SDS011;1691;52.486;13.374;2022-09-09T06:01:29;2.30;;;2.20;;
3355;SDS011;1691;52.486;13.374;2022-09-09T06:03:59;3.23;;;2.20;;
3355;SDS011;1691;52.486;13.374;2022-09-09T06:06:27;5.93;;;2.30;;
3355;SDS011;1691;52.486;13.374;2022-09-09T06:09:03;2.10;;;1.63;;
3355;SDS011;1691;52.486;13.374;2022-09-09T06:11:39;3.90;;;2.20;;
3355;SDS011;1691;52.486;13.374;2022-09-09T06:14:08;4.50;;;2.50;;
3355;SDS011;1691;52.486;13.374;2022-09-09T06:16:35;4.10;;;2.20;;
3355;SDS011;1691;52.486;13.374;2022-09-09T06:19:09;5.20;;;1.97;;
3355;SDS011;1691;52.486;13.374;2022-09-09T06:21:38;2.47;;;1.90;;
3355;SDS011;1691;52.486;13.374;2022-09-09T06:24:06;2.70;;;2.60;;
3355;SDS011;1691;52.486;13.374;2022-09-09T06:26:34;4.93;;;1.70;;
3355;SDS011;1691;52.486;13.374;2022-09-09T06:29:04;4.83;;;2.70;;
3355;SDS011;1691;52.486;13.374;2022-09-09T06:31:33;8.30;;;7.50;;
3355;SDS011;1691;52.486;13.374;2022-09-09T06:34:07;7.73;;;6.87;;
3355;SDS011;1691;52.486;13.374;2022-09-09T06:36:36;4.13;;;3.70;;
3355;SDS011;1691;52.486;13.374;2022-09-09T06:39:05;3.17;;;2.00;;
3355;SDS011;1691;52.486;13.374;2022-09-09T06:41:39;2.30;;;2.10;;
3355;SDS011;1691;52.486;13.374;2022-09-09T06:44:07;2.20;;;2.00;;
3355;SDS011;1691;52.486;13.374;2022-09-09T06:46:34;10.00;;;2.57;;
3355;SDS011;1691;52.486;13.374;2022-09-09T06:49:02;6.00;;;1.90;;
3355;SDS011;1691;52.486;13.374;2022-09-09T06:51:30;1.97;;;1.83;;
3355;SDS011;1691;52.486;13.374;2022-09-09T06:54:02;3.30;;;1.83;;
3355;SDS011;1691;52.486;13.374;2022-09-09T06:56:31;6.20;;;2.23;;
3355;SDS011;1691;52.486;13.374;2022-09-09T06:59:02;4.00;;;1.53;;
3355;SDS011;1691;52.486;13.374;2022-09-09T07:01:36;3.63;;;1.93;;
3355;SDS011;1691;52.486;13.374;2022-09-09T07:04:07;7.23;;;1.50;;
3355;SDS011;1691;52.486;13.374;2022-09-09T07:06:36;6.60;;;2.00;;
3355;SDS011;1691;52.486;13.374;2022-09-09T07:09:07;2.00;;;1.77;;
3355;SDS011;1691;52.486;13.374;2022-09-09T07:11:38;3.87;;;2.00;;
3355;SDS011;1691;52.486;13.374;2022-09-09T07:14:08;1.40;;;1.27;;
3355;SDS011;1691;52.486;13.374;2022-09-09T07:16:40;7.53;;;1.30;;
3355;SDS011;1691;52.486;13.374;2022-09-09T07:19:08;2.23;;;1.67;;
3355;SDS011;1691;52.486;13.374;2022-09-09T07:21:37;4.20;;;0.97;;
3355;SDS011;1691;52.486;13.374;2022-09-09T07:24:06;3.93;;;1.83;;
3355;SDS011;1691;52.486;13.374;2022-09-09T07:26:37;1.47;;;1.37;;
3355;SDS011;1691;52.486;13.374;2022-09-09T07:29:05;2.93;;;1.37;;
3355;SDS011;1691;52.486;13.374;2022-09-09T07:31:34;2.90;;;2.07;;
3355;SDS011;1691;52.486;13.374;2022-09-09T07:34:04;10.67;;;1.63;;
3355;SDS011;1691;52.486;13.374;2022-09-09T07:36:32;3.07;;;1.40;;
3355;SDS011;1691;52.486;13.374;2022-09-09T07:39:07;2.95;;;1.38;;
3355;SDS011;1691;52.486;13.374;2022-09-09T07:41:47;7.80;;;1.83;;
3355;SDS011;1691;52.486;13.374;2022-09-09T07:44:20;1.60;;;1.23;;
3355;SDS011;1691;52.486;13.374;2022-09-09T07:46:49;7.60;;;2.33;;
3355;SDS011;1691;52.486;13.374;2022-09-09T07:49:16;2.00;;;1.50;;
3355;SDS011;1691;52.486;13.374;2022-09-09T07:51:51;3.67;;;1.40;;
3355;SDS011;1691;52.486;13.374;2022-09-09T07:54:19;2.90;;;2.00;;
3355;SDS011;1691;52.486;13.374;2022-09-09T07:56:50;3.20;;;1.70;;
3355;SDS011;1691;52.486;13.374;2022-09-09T07:59:17;3.10;;;1.50;;
3355;SDS011;1691;52.486;13.374;2022-09-09T08:01:46;4.20;;;1.10;;
3355;SDS011;1691;52.486;13.374;2022-09-09T08:04:22;2.23;;;1.63;;
3355;SDS011;1691;52.486;13.374;2022-09-09T08:06:56;2.60;;;1.00;;
3355;SDS011;1691;52.486;13.374;2022-09-09T08:09:26;3.43;;;1.03;;
3355;SDS011;1691;52.486;13.374;2022-09-09T08:11:56;5.00;;;1.30;;
3355;SDS011;1691;52.486;13.374;2022-09-09T08:14:24;1.00;;;0.90;;
3355;SDS011;1691;52.486;13.374;2022-09-09T08:16:52;4.33;;;1.03;;
3355;SDS011;1691;52.486;13.374;2022-09-09T08:19:20;1.90;;;1.10;;
3355;SDS011;1691;52.486;13.374;2022-09-09T08:21:47;3.63;;;1.40;;
3355;SDS011;1691;52.486;13.374;2022-09-09T08:24:15;3.40;;;1.30;;
3355;SDS011;1691;52.486;13.374;2022-09-09T08:26:44;1.93;;;1.10;;
3355;SDS011;1691;52.486;13.374;2022-09-09T08:29:15;1.20;;;1.10;;
3355;SDS011;1691;52.486;13.374;2022-09-09T08:34:11;20.80;;;13.40;;
3355;SDS011;1691;52.486;13.374;2022-09-09T08:36:42;20.03;;;11.27;;
3355;SDS011;1691;52.486;13.374;2022-09-09T08:39:12;4.50;;;2.57;;
3355;SDS011;1691;52.486;13.374;2022-09-09T08:42:04;4.77;;;1.60;;
3355;SDS011;1691;52.486;13.374;2022-09-09T08:48:28;1.83;;;1.50;;
3355;SDS011;1691;52.486;13.374;2022-09-09T08:51:14;6.40;;;1.97;;
3355;SDS011;1691;52.486;13.374;2022-09-09T08:53:46;3.83;;;1.40;;
3355;SDS011;1691;52.486;13.374;2022-09-09T08:56:21;4.20;;;2.23;;
3355;SDS011;1691;52.486;13.374;2022-09-09T08:58:52;13.87;;;2.00;;
3355;SDS011;1691;52.486;13.374;2022-09-09T09:13:15;7.60;;;2.20;;
3355;SDS011;1691;52.486;13.374;2022-09-09T09:15:58;5.27;;;1.20;;
3355;SDS011;1691;52.486;13.374;2022-09-09T09:18:36;3.87;;;1.30;;
3355;SDS011;1691;52.486;13.374;2022-09-09T09:21:06;20.50;;;3.27;;
3355;SDS011;1691;52.486;13.374;2022-09-09T09:23:42;3.77;;;1.63;;
3355;SDS011;1691;52.486;13.374;2022-09-09T09:26:25;2.60;;;1.53;;
3355;SDS011;1691;52.486;13.374;2022-09-09T09:29:07;6.83;;;1.70;;
3355;SDS011;1691;52.486;13.374;2022-09-09T09:31:54;1.63;;;1.03;;
3355;SDS011;1691;52.486;13.374;2022-09-09T09:34:25;1.77;;;1.20;;
3355;SDS011;1691;52.486;13.374;2022-09-09T09:39:27;5.60;;;5.23;;
3355;SDS011;1691;52.486;13.374;2022-09-09T09:42:17;31.17;;;28.20;;
3355;SDS011;1691;52.486;13.374;2022-09-09T09:44:49;1.97;;;1.87;;
3355;SDS011;1691;52.486;13.374;2022-09-09T09:47:17;15.27;;;3.90;;
3355;SDS011;1691;52.486;13.374;2022-09-09T09:49:57;3.33;;;1.10;;
3355;SDS011;1691;52.486;13.374;2022-09-09T09:52:27;5.07;;;1.13;;
3355;SDS011;1691;52.486;13.374;2022-09-09T09:54:57;3.10;;;1.13;;
3355;SDS011;1691;52.486;13.374;2022-09-09T09:57:32;2.30;;;1.13;;
3355;SDS011;1691;52.486;13.374;2022-09-09T10:00:18;2.13;;;1.17;;
3355;SDS011;1691;52.486;13.374;2022-09-09T10:02:48;4.10;;;1.27;;
3355;SDS011;1691;52.486;13.374;2022-09-09T10:05:27;3.80;;;1.17;;
3355;SDS011;1691;52.486;13.374;2022-09-09T10:19:32;16.77;;;1.50;;
3355;SDS011;1691;52.486;13.374;2022-09-09T10:28:10;10.67;;;1.47;;
3355;SDS011;1691;52.486;13.374;2022-09-09T10:34:56;3.97;;;1.67;;
3355;SDS011;1691;52.486;13.374;2022-09-09T10:37:23;2.93;;;1.23;;
3355;SDS011;1691;52.486;13.374;2022-09-09T10:43:13;1.20;;;0.97;;
3355;SDS011;1691;52.486;13.374;2022-09-09T10:46:23;3.77;;;1.07;;
3355;SDS011;1691;52.486;13.374;2022-09-09T10:52:31;4.83;;;1.27;;
3355;SDS011;1691;52.486;13.374;2022-09-09T10:57:55;2.03;;;1.07;;
3355;SDS011;1691;52.486;13.374;2022-09-09T11:00:27;7.30;;;3.53;;
3355;SDS011;1691;52.486;13.374;2022-09-09T11:03:05;1.80;;;1.23;;
3355;SDS011;1691;52.486;13.374;2022-09-09T11:05:43;3.33;;;1.47;;
3355;SDS011;1691;52.486;13.374;2022-09-09T11:08:32;4.60;;;1.40;;
3355;SDS011;1691;52.486;13.374;2022-09-09T11:11:09;4.10;;;1.47;;
3355;SDS011;1691;52.486;13.374;2022-09-09T11:17:48;2.13;;;1.07;;
3355;SDS011;1691;52.486;13.374;2022-09-09T11:20:04;1.50;;;1.30;;
3355;SDS011;1691;52.486;13.374;2022-09-09T11:22:34;2.67;;;1.27;;
3355;SDS011;1691;52.486;13.374;2022-09-09T11:25:25;5.00;;;1.27;;
3355;SDS011;1691;52.486;13.374;2022-09-09T11:28:36;6.60;;;1.60;;
3355;SDS011;1691;52.486;13.374;2022-09-09T11:42:34;6.63;;;1.50;;
3355;SDS011;1691;52.486;13.374;2022-09-09T11:45:11;1.87;;;1.47;;
3355;SDS011;1691;52.486;13.374;2022-09-09T11:47:54;4.27;;;1.30;;
3355;SDS011;1691;52.486;13.374;2022-09-09T11:52:50;6.40;;;1.73;;
3355;SDS011;1691;52.486;13.374;2022-09-09T11:55:31;2.60;;;0.90;;
3355;SDS011;1691;52.486;13.374;2022-09-09T11:58:02;1.83;;;1.50;;
3355;SDS011;1691;52.486;13.374;2022-09-09T12:00:31;1.67;;;1.50;;
3355;SDS011;1691;52.486;13.374;2022-09-09T12:03:36;1.30;;;1.20;;
3355;SDS011;1691;52.486;13.374;2022-09-09T12:06:28;4.17;;;1.20;;
3355;SDS011;1691;52.486;13.374;2022-09-09T12:09:12;1.20;;;0.80;;
3355;SDS011;1691;52.486;13.374;2022-09-09T12:14:56;2.90;;;1.10;;
3355;SDS011;1691;52.486;13.374;2022-09-09T12:17:27;1.27;;;1.07;;
3355;SDS011;1691;52.486;13.374;2022-09-09T12:20:06;2.03;;;1.20;;
3355;SDS011;1691;52.486;13.374;2022-09-09T12:31:43;2.00;;;0.90;;
3355;SDS011;1691;52.486;13.374;2022-09-09T12:39:57;7.63;;;1.53;;
3355;SDS011;1691;52.486;13.374;2022-09-09T12:42:28;4.20;;;1.17;;
3355;SDS011;1691;52.486;13.374;2022-09-09T12:44:57;3.77;;;0.97;;
3355;SDS011;1691;52.486;13.374;2022-09-09T12:47:37;1.27;;;0.97;;
3355;SDS011;1691;52.486;13.374;2022-09-09T12:50:26;2.53;;;1.20;;
3355;SDS011;1691;52.486;13.374;2022-09-09T12:53:31;4.10;;;1.50;;
3355;SDS011;1691;52.486;13.374;2022-09-09T12:58:45;2.80;;;1.00;;
3355;SDS011;1691;52.486;13.374;2022-09-09T13:01:22;2.20;;;0.70;;
3355;SDS011;1691;52.486;13.374;2022-09-09T13:03:53;4.03;;;1.37;;
3355;SDS011;1691;52.486;13.374;2022-09-09T13:06:22;1.67;;;1.00;;
3355;SDS011;1691;52.486;13.374;2022-09-09T13:08:58;4.17;;;1.57;;
3355;SDS011;1691;52.486;13.374;2022-09-09T13:11:31;4.27;;;1.13;;
3355;SDS011;1691;52.486;13.374;2022-09-09T13:17:23;3.90;;;1.63;;
3355;SDS011;1691;52.486;13.374;2022-09-09T13:19:53;11.33;;;1.87;;
3355;SDS011;1691;52.486;13.374;2022-09-09T13:22:35;1.50;;;0.97;;
3355;SDS011;1691;52.486;13.374;2022-09-09T13:27:38;3.03;;;0.83;;
3355;SDS011;1691;52.486;13.374;2022-09-09T13:35:56;2.13;;;0.90;;
3355;SDS011;1691;52.486;13.374;2022-09-09T13:38:29;2.40;;;0.77;;
3355;SDS011;1691;52.486;13.374;2022-09-09T13:41:18;1.80;;;1.03;;
3355;SDS011;1691;52.486;13.374;2022-09-09T13:43:48;2.13;;;0.90;;
3355;SDS011;1691;52.486;13.374;2022-09-09T13:49:21;2.33;;;1.00;;
3355;SDS011;1691;52.486;13.374;2022-09-09T13:51:50;1.20;;;0.90;;
3355;SDS011;1691;52.486;13.374;2022-09-09T13:54:20;2.50;;;1.67;;
3355;SDS011;1691;52.486;13.374;2022-09-09T13:56:49;5.23;;;1.10;;
3355;SDS011;1691;52.486;13.374;2022-09-09T13:59:17;1.33;;;1.23;;
3355;SDS011;1691;52.486;13.374;2022-09-09T14:01:46;1.80;;;0.90;;
3355;SDS011;1691;52.486;13.374;2022-09-09T14:04:13;1.17;;;1.00;;
3355;SDS011;1691;52.486;13.374;2022-09-09T14:06:41;1.43;;;0.93;;
3355;SDS011;1691;52.486;13.374;2022-09-09T14:09:10;6.60;;;1.40;;
3355;SDS011;1691;52.486;13.374;2022-09-09T14:11:42;2.60;;;0.80;;
3355;SDS011;1691;52.486;13.374;2022-09-09T14:14:11;1.83;;;1.00;;
3355;SDS011;1691;52.486;13.374;2022-09-09T14:16:38;1.40;;;0.80;;
3355;SDS011;1691;52.486;13.374;2022-09-09T14:19:05;1.80;;;1.20;;
3355;SDS011;1691;52.486;13.374;2022-09-09T14:21:34;1.20;;;0.80;;
3355;SDS011;1691;52.486;13.374;2022-09-09T14:24:02;7.13;;;1.00;;
3355;SDS011;1691;52.486;13.374;2022-09-09T14:26:29;1.80;;;1.10;;
3355;SDS011;1691;52.486;13.374;2022-09-09T14:28:56;1.40;;;1.30;;
3355;SDS011;1691;52.486;13.374;2022-09-09T14:31:24;6.30;;;1.60;;
3355;SDS011;1691;52.486;13.374;2022-09-09T14:33:51;2.57;;;1.20;;
3355;SDS011;1691;52.486;13.374;2022-09-09T14:36:18;2.57;;;1.00;;
3355;SDS011;1691;52.486;13.374;2022-09-09T14:38:46;2.90;;;0.90;;
3355;SDS011;1691;52.486;13.374;2022-09-09T14:41:15;3.17;;;0.90;;
3355;SDS011;1691;52.486;13.374;2022-09-09T14:43:44;4.77;;;1.00;;
3355;SDS011;1691;52.486;13.374;2022-09-09T14:46:13;4.17;;;1.10;;
3355;SDS011;1691;52.486;13.374;2022-09-09T14:48:45;1.80;;;1.07;;
3355;SDS011;1691;52.486;13.374;2022-09-09T14:51:16;1.33;;;1.00;;
3355;SDS011;1691;52.486;13.374;2022-09-09T14:53:50;3.97;;;1.27;;
3355;SDS011;1691;52.486;13.374;2022-09-09T14:56:20;2.07;;;1.13;;
3355;SDS011;1691;52.486;13.374;2022-09-09T14:58:52;2.30;;;1.47;;
3355;SDS011;1691;52.486;13.374;2022-09-09T15:01:21;1.67;;;1.40;;
3355;SDS011;1691;52.486;13.374;2022-09-09T15:03:53;1.73;;;1.33;;
3355;SDS011;1691;52.486;13.374;2022-09-09T15:06:24;6.23;;;1.50;;
3355;SDS011;1691;52.486;13.374;2022-09-09T15:08:56;2.50;;;1.17;;
3355;SDS011;1691;52.486;13.374;2022-09-09T15:11:27;4.53;;;1.47;;
3355;SDS011;1691;52.486;13.374;2022-09-09T15:13:58;3.93;;;1.00;;
3355;SDS011;1691;52.486;13.374;2022-09-09T15:16:26;4.73;;;1.83;;
3355;SDS011;1691;52.486;13.374;2022-09-09T15:18:55;5.03;;;0.90;;
3355;SDS011;1691;52.486;13.374;2022-09-09T15:21:28;2.70;;;1.27;;
3355;SDS011;1691;52.486;13.374;2022-09-09T15:23:58;4.00;;;1.23;;
3355;SDS011;1691;52.486;13.374;2022-09-09T15:26:26;3.80;;;1.10;;
3355;SDS011;1691;52.486;13.374;2022-09-09T15:28:53;4.90;;;1.20;;
3355;SDS011;1691;52.486;13.374;2022-09-09T15:31:24;4.10;;;1.50;;
3355;SDS011;1691;52.486;13.374;2022-09-09T15:36:32;1.30;;;0.90;;
3355;SDS011;1691;52.486;13.374;2022-09-09T15:39:05;4.03;;;0.90;;
3355;SDS011;1691;52.486;13.374;2022-09-09T15:41:39;2.30;;;1.00;;
3355;SDS011;1691;52.486;13.374;2022-09-09T15:44:06;3.60;;;1.00;;
3355;SDS011;1691;52.486;13.374;2022-09-09T15:51:37;5.47;;;4.00;;
3355;SDS011;1691;52.486;13.374;2022-09-09T15:54:14;2.20;;;1.20;;
3355;SDS011;1691;52.486;13.374;2022-09-09T15:56:44;1.13;;;1.03;;
3355;SDS011;1691;52.486;13.374;2022-09-09T15:59:14;1.33;;;0.70;;
3355;SDS011;1691;52.486;13.374;2022-09-09T16:01:42;1.83;;;1.73;;
3355;SDS011;1691;52.486;13.374;2022-09-09T16:04:10;2.80;;;1.50;;
3355;SDS011;1691;52.486;13.374;2022-09-09T16:06:38;1.87;;;1.67;;
3355;SDS011;1691;52.486;13.374;2022-09-09T16:09:06;6.10;;;1.57;;
3355;SDS011;1691;52.486;13.374;2022-09-09T16:11:35;2.23;;;1.33;;
3355;SDS011;1691;52.486;13.374;2022-09-09T16:14:04;1.60;;;1.03;;
3355;SDS011;1691;52.486;13.374;2022-09-09T16:16:32;2.30;;;0.90;;
3355;SDS011;1691;52.486;13.374;2022-09-09T16:19:08;11.40;;;1.10;;
3355;SDS011;1691;52.486;13.374;2022-09-09T16:21:40;8.13;;;1.67;;
3355;SDS011;1691;52.486;13.374;2022-09-09T16:24:14;1.30;;;1.20;;
3355;SDS011;1691;52.486;13.374;2022-09-09T16:26:48;2.33;;;1.47;;
3355;SDS011;1691;52.486;13.374;2022-09-09T16:29:18;3.40;;;1.10;;
3355;SDS011;1691;52.486;13.374;2022-09-09T16:31:46;3.03;;;1.47;;
3355;SDS011;1691;52.486;13.374;2022-09-09T16:34:15;4.33;;;2.07;;
3355;SDS011;1691;52.486;13.374;2022-09-09T16:36:44;4.50;;;1.20;;
3355;SDS011;1691;52.486;13.374;2022-09-09T16:39:12;8.10;;;1.20;;
3355;SDS011;1691;52.486;13.374;2022-09-09T16:41:46;4.03;;;1.57;;
3355;SDS011;1691;52.486;13.374;2022-09-09T16:44:14;3.73;;;1.20;;
3355;SDS011;1691;52.486;13.374;2022-09-09T16:46:45;2.87;;;1.90;;
3355;SDS011;1691;52.486;13.374;2022-09-09T16:49:15;3.90;;;1.73;;
3355;SDS011;1691;52.486;13.374;2022-09-09T16:51:43;5.97;;;1.67;;
3355;SDS011;1691;52.486;13.374;2022-09-09T16:54:13;2.70;;;2.20;;
3355;SDS011;1691;52.486;13.374;2022-09-09T16:56:43;2.60;;;1.97;;
3355;SDS011;1691;52.486;13.374;2022-09-09T16:59:19;5.40;;;1.40;;
3355;SDS011;1691;52.486;13.374;2022-09-09T17:01:48;3.27;;;1.80;;
3355;SDS011;1691;52.486;13.374;2022-09-09T17:04:21;2.03;;;1.50;;
3355;SDS011;1691;52.486;13.374;2022-09-09T17:06:53;1.60;;;1.20;;
3355;SDS011;1691;52.486;13.374;2022-09-09T17:09:21;3.40;;;2.10;;
3355;SDS011;1691;52.486;13.374;2022-09-09T17:11:50;3.83;;;1.33;;
3355;SDS011;1691;52.486;13.374;2022-09-09T17:14:19;1.97;;;1.70;;
3355;SDS011;1691;52.486;13.374;2022-09-09T17:16:47;3.60;;;1.57;;
3355;SDS011;1691;52.486;13.374;2022-09-09T17:19:14;7.17;;;1.67;;
3355;SDS011;1691;52.486;13.374;2022-09-09T17:21:42;3.63;;;2.13;;
3355;SDS011;1691;52.486;13.374;2022-09-09T17:24:29;6.80;;;1.60;;
3355;SDS011;1691;52.486;13.374;2022-09-09T17:26:56;13.40;;;2.47;;
3355;SDS011;1691;52.486;13.374;2022-09-09T17:29:24;4.77;;;1.90;;
3355;SDS011;1691;52.486;13.374;2022-09-09T17:31:51;2.00;;;1.47;;
3355;SDS011;1691;52.486;13.374;2022-09-09T17:34:19;1.70;;;1.60;;
3355;SDS011;1691;52.486;13.374;2022-09-09T17:36:46;9.00;;;2.10;;
3355;SDS011;1691;52.486;13.374;2022-09-09T17:39:14;4.03;;;2.00;;
3355;SDS011;1691;52.486;13.374;2022-09-09T17:41:41;5.27;;;2.10;;
3355;SDS011;1691;52.486;13.374;2022-09-09T17:44:08;4.53;;;1.80;;
3355;SDS011;1691;52.486;13.374;2022-09-09T17:46:39;3.43;;;2.17;;
3355;SDS011;1691;52.486;13.374;2022-09-09T17:49:09;1.80;;;1.70;;
3355;SDS011;1691;52.486;13.374;2022-09-09T17:51:43;4.23;;;2.37;;
3355;SDS011;1691;52.486;13.374;2022-09-09T17:54:15;7.37;;;2.10;;
3355;SDS011;1691;52.486;13.374;2022-09-09T17:56:45;2.17;;;2.07;;
3355;SDS011;1691;52.486;13.374;2022-09-09T17:59:14;2.90;;;2.53;;
3355;SDS011;1691;52.486;13.374;2022-09-09T18:01:45;2.30;;;1.67;;
3355;SDS011;1691;52.486;13.374;2022-09-09T18:04:17;1.50;;;1.40;;